sensor_id;sensor_type;location;lat;lon;timestamp;P1;P2;P0
76420;PMS5003;65253;52.354;13.614;2024-03-22T00:00:00;14;10;
76420;PMS5003;65253;52.354;13.614;2024-03-22T00:04:00;14;12;
76420;PMS5003;65253;52.354;13.614;2024-03-22T00:08:00;11;10;
76420;PMS5003;65253;52.354;13.614;2024-03-22T00:12:00;14;10;
76420;PMS5003;65253;52.354;13.614;2024-03-22T00:16:00;17;14;
76420;PMS5003;65253;52.354;13.614;2024-03-22T00:20:00;14;9;
76420;PMS5003;65253;52.354;13.614;2024-03-22T00:24:00;14;11;
76420;PMS5003;65253;52.354;13.614;2024-03-22T00:28:00;15;12;
76420;PMS5003;65253;52.354;13.614;2024-03-22T00:32:00;14;14;
76420;PMS5003;65253;52.354;13.614;2024-03-22T00:36:00;18;14;
76420;PMS5003;65253;52.354;13.614;2024-03-22T00:40:00;17;13;
76420;PMS5003;65253;52.354;13.614;2024-03-22T00:44:00;16;11;
76420;PMS5003;65253;52.354;13.614;2024-03-22T00:48:00;15;12;
76420;PMS5003;65253;52.354;13.614;2024-03-22T00:52:00;19;12;
76420;PMS5003;65253;52.354;13.614;2024-03-22T00:56:00;17;12;
76420;PMS5003;65253;52.354;13.614;2024-03-22T01:00:00;17;11;
76420;PMS5003;65253;52.354;13.614;2024-03-22T01:04:00;12;11;
76420;PMS5003;65253;52.354;13.614;2024-03-22T01:08:00;19;15;
76420;PMS5003;65253;52.354;13.614;2024-03-22T01:12:00;12;11;
76420;PMS5003;65253;52.354;13.614;2024-03-22T01:16:00;17;13;
76420;PMS5003;65253;52.354;13.614;2024-03-22T01:20:00;14;11;
76420;PMS5003;65253;52.354;13.614;2024-03-22T01:24:00;16;11;
76420;PMS5003;65253;52.354;13.614;2024-03-22T01:28:00;23;13;
76420;PMS5003;65253;52.354;13.614;2024-03-22T01:32:00;11;10;
76420;PMS5003;65253;52.354;13.614;2024-03-22T01:36:00;13;12;
76420;PMS5003;65253;52.354;13.614;2024-03-22T01:40:00;19;11;
76420;PMS5003;65253;52.354;13.614;2024-03-22T01:44:00;17;12;
76420;PMS5003;65253;52.354;13.614;2024-03-22T01:48:00;12;12;
76420;PMS5003;65253;52.354;13.614;2024-03-22T01:52:00;15;12;
76420;PMS5003;65253;52.354;13.614;2024-03-22T01:56:00;14;12;
76420;PMS5003;65253;52.354;13.614;2024-03-22T02:00:00;15;11;
76420;PMS5003;65253;52.354;13.614;2024-03-22T02:04:00;22;13;
76420;PMS5003;65253;52.354;13.614;2024-03-22T02:08:00;13;9;
76420;PMS5003;65253;52.354;13.614;2024-03-22T02:12:00;17;13;
76420;PMS5003;65253;52.354;13.614;2024-03-22T02:16:02;12;11;
76420;PMS5003;65253;52.354;13.614;2024-03-22T02:20:00;19;12;
76420;PMS5003;65253;52.354;13.614;2024-03-22T02:24:00;20;13;
76420;PMS5003;65253;52.354;13.614;2024-03-22T02:28:00;11;8;
76420;PMS5003;65253;52.354;13.614;2024-03-22T02:32:00;12;9;
76420;PMS5003;65253;52.354;13.614;2024-03-22T02:36:00;17;11;
76420;PMS5003;65253;52.354;13.614;2024-03-22T02:40:00;16;12;
76420;PMS5003;65253;52.354;13.614;2024-03-22T02:44:00;18;13;
76420;PMS5003;65253;52.354;13.614;2024-03-22T02:48:00;12;10;
76420;PMS5003;65253;52.354;13.614;2024-03-22T02:52:00;23;12;
76420;PMS5003;65253;52.354;13.614;2024-03-22T02:56:00;13;10;
76420;PMS5003;65253;52.354;13.614;2024-03-22T03:00:00;15;11;
76420;PMS5003;65253;52.354;13.614;2024-03-22T03:04:00;17;14;
76420;PMS5003;65253;52.354;13.614;2024-03-22T03:08:00;18;12;
76420;PMS5003;65253;52.354;13.614;2024-03-22T03:12:00;15;9;
76420;PMS5003;65253;52.354;13.614;2024-03-22T03:16:00;14;10;
76420;PMS5003;65253;52.354;13.614;2024-03-22T03:20:00;20;9;
76420;PMS5003;65253;52.354;13.614;2024-03-22T03:24:00;11;9;
76420;PMS5003;65253;52.354;13.614;2024-03-22T03:28:00;15;11;
76420;PMS5003;65253;52.354;13.614;2024-03-22T03:32:00;19;12;
76420;PMS5003;65253;52.354;13.614;2024-03-22T03:36:00;12;11;
76420;PMS5003;65253;52.354;13.614;2024-03-22T03:40:00;14;13;
76420;PMS5003;65253;52.354;13.614;2024-03-22T03:44:00;23;13;
76420;PMS5003;65253;52.354;13.614;2024-03-22T03:48:00;20;11;
76420;PMS5003;65253;52.354;13.614;2024-03-22T03:52:00;14;12;
76420;PMS5003;65253;52.354;13.614;2024-03-22T03:56:00;14;12;
76420;PMS5003;65253;52.354;13.614;2024-03-22T04:00:00;14;12;
76420;PMS5003;65253;52.354;13.614;2024-03-22T04:04:02;16;12;
76420;PMS5003;65253;52.354;13.614;2024-03-22T04:08:00;19;14;
76420;PMS5003;65253;52.354;13.614;2024-03-22T04:12:00;15;12;
76420;PMS5003;65253;52.354;13.614;2024-03-22T04:16:00;18;9;
76420;PMS5003;65253;52.354;13.614;2024-03-22T04:20:00;13;8;
76420;PMS5003;65253;52.354;13.614;2024-03-22T04:24:00;9;9;
76420;PMS5003;65253;52.354;13.614;2024-03-22T04:28:00;17;9;
76420;PMS5003;65253;52.354;13.614;2024-03-22T04:32:01;18;14;
76420;PMS5003;65253;52.354;13.614;2024-03-22T04:36:00;10;9;
76420;PMS5003;65253;52.354;13.614;2024-03-22T04:40:00;13;9;
76420;PMS5003;65253;52.354;13.614;2024-03-22T04:44:00;10;10;
76420;PMS5003;65253;52.354;13.614;2024-03-22T04:48:00;14;11;
76420;PMS5003;65253;52.354;13.614;2024-03-22T04:52:00;11;9;
76420;PMS5003;65253;52.354;13.614;2024-03-22T04:56:00;14;8;
76420;PMS5003;65253;52.354;13.614;2024-03-22T05:00:00;12;8;
76420;PMS5003;65253;52.354;13.614;2024-03-22T05:04:00;16;11;
76420;PMS5003;65253;52.354;13.614;2024-03-22T05:08:00;17;14;
76420;PMS5003;65253;52.354;13.614;2024-03-22T05:12:00;15;11;
76420;PMS5003;65253;52.354;13.614;2024-03-22T05:16:00;12;10;
76420;PMS5003;65253;52.354;13.614;2024-03-22T05:20:00;20;10;
76420;PMS5003;65253;52.354;13.614;2024-03-22T05:24:00;20;9;
76420;PMS5003;65253;52.354;13.614;2024-03-22T05:28:00;22;11;
76420;PMS5003;65253;52.354;13.614;2024-03-22T05:32:00;16;11;
76420;PMS5003;65253;52.354;13.614;2024-03-22T05:36:00;11;11;
76420;PMS5003;65253;52.354;13.614;2024-03-22T05:40:00;16;10;
76420;PMS5003;65253;52.354;13.614;2024-03-22T05:44:00;16;11;
76420;PMS5003;65253;52.354;13.614;2024-03-22T05:48:00;13;9;
76420;PMS5003;65253;52.354;13.614;2024-03-22T05:52:00;17;11;
76420;PMS5003;65253;52.354;13.614;2024-03-22T05:56:00;15;10;
76420;PMS5003;65253;52.354;13.614;2024-03-22T06:00:00;14;8;
76420;PMS5003;65253;52.354;13.614;2024-03-22T06:04:00;17;11;
76420;PMS5003;65253;52.354;13.614;2024-03-22T06:08:00;15;11;
76420;PMS5003;65253;52.354;13.614;2024-03-22T06:12:00;16;12;
76420;PMS5003;65253;52.354;13.614;2024-03-22T06:16:00;13;10;
76420;PMS5003;65253;52.354;13.614;2024-03-22T06:20:00;18;11;
76420;PMS5003;65253;52.354;13.614;2024-03-22T06:24:01;18;11;
76420;PMS5003;65253;52.354;13.614;2024-03-22T06:28:00;16;12;
76420;PMS5003;65253;52.354;13.614;2024-03-22T06:32:00;14;11;
76420;PMS5003;65253;52.354;13.614;2024-03-22T06:36:00;20;9;
76420;PMS5003;65253;52.354;13.614;2024-03-22T06:40:00;19;15;
76420;PMS5003;65253;52.354;13.614;2024-03-22T06:44:00;20;11;
76420;PMS5003;65253;52.354;13.614;2024-03-22T06:48:00;16;11;
76420;PMS5003;65253;52.354;13.614;2024-03-22T06:52:00;21;13;
76420;PMS5003;65253;52.354;13.614;2024-03-22T06:56:00;20;14;
76420;PMS5003;65253;52.354;13.614;2024-03-22T07:00:00;20;12;
76420;PMS5003;65253;52.354;13.614;2024-03-22T07:04:00;20;15;
76420;PMS5003;65253;52.354;13.614;2024-03-22T07:08:00;19;13;
76420;PMS5003;65253;52.354;13.614;2024-03-22T07:12:00;17;12;
76420;PMS5003;65253;52.354;13.614;2024-03-22T07:16:00;17;15;
76420;PMS5003;65253;52.354;13.614;2024-03-22T07:20:00;25;13;
76420;PMS5003;65253;52.354;13.614;2024-03-22T07:24:00;18;13;
76420;PMS5003;65253;52.354;13.614;2024-03-22T07:28:00;24;18;
76420;PMS5003;65253;52.354;13.614;2024-03-22T07:32:00;18;14;
76420;PMS5003;65253;52.354;13.614;2024-03-22T07:36:01;23;13;
76420;PMS5003;65253;52.354;13.614;2024-03-22T07:40:00;17;14;
76420;PMS5003;65253;52.354;13.614;2024-03-22T07:44:00;21;12;
76420;PMS5003;65253;52.354;13.614;2024-03-22T07:48:00;19;12;
76420;PMS5003;65253;52.354;13.614;2024-03-22T07:52:00;21;17;
76420;PMS5003;65253;52.354;13.614;2024-03-22T07:56:00;15;12;
76420;PMS5003;65253;52.354;13.614;2024-03-22T08:00:00;26;18;
76420;PMS5003;65253;52.354;13.614;2024-03-22T08:04:00;14;14;
76420;PMS5003;65253;52.354;13.614;2024-03-22T08:08:00;23;16;
76420;PMS5003;65253;52.354;13.614;2024-03-22T08:12:00;20;16;
76420;PMS5003;65253;52.354;13.614;2024-03-22T08:16:00;27;15;
76420;PMS5003;65253;52.354;13.614;2024-03-22T08:20:01;24;16;
76420;PMS5003;65253;52.354;13.614;2024-03-22T08:24:00;18;12;
76420;PMS5003;65253;52.354;13.614;2024-03-22T08:28:07;24;16;
76420;PMS5003;65253;52.354;13.614;2024-03-22T08:32:00;20;15;
76420;PMS5003;65253;52.354;13.614;2024-03-22T08:36:00;18;14;
76420;PMS5003;65253;52.354;13.614;2024-03-22T08:40:00;21;17;
76420;PMS5003;65253;52.354;13.614;2024-03-22T08:44:00;26;16;
76420;PMS5003;65253;52.354;13.614;2024-03-22T08:48:00;19;13;
76420;PMS5003;65253;52.354;13.614;2024-03-22T08:52:01;24;12;
76420;PMS5003;65253;52.354;13.614;2024-03-22T08:56:00;23;17;
76420;PMS5003;65253;52.354;13.614;2024-03-22T09:00:00;18;13;
76420;PMS5003;65253;52.354;13.614;2024-03-22T09:04:00;24;15;
76420;PMS5003;65253;52.354;13.614;2024-03-22T09:08:00;23;20;
76420;PMS5003;65253;52.354;13.614;2024-03-22T09:12:00;15;13;
76420;PMS5003;65253;52.354;13.614;2024-03-22T09:16:00;15;14;
76420;PMS5003;65253;52.354;13.614;2024-03-22T09:20:00;18;14;
76420;PMS5003;65253;52.354;13.614;2024-03-22T09:24:00;18;16;
76420;PMS5003;65253;52.354;13.614;2024-03-22T09:28:00;23;11;
76420;PMS5003;65253;52.354;13.614;2024-03-22T09:32:00;18;14;
76420;PMS5003;65253;52.354;13.614;2024-03-22T09:36:01;23;18;
76420;PMS5003;65253;52.354;13.614;2024-03-22T09:40:00;15;14;
76420;PMS5003;65253;52.354;13.614;2024-03-22T09:44:00;18;14;
76420;PMS5003;65253;52.354;13.614;2024-03-22T09:48:00;19;15;
76420;PMS5003;65253;52.354;13.614;2024-03-22T09:52:00;18;16;
76420;PMS5003;65253;52.354;13.614;2024-03-22T09:56:01;20;13;
76420;PMS5003;65253;52.354;13.614;2024-03-22T10:00:00;27;15;
76420;PMS5003;65253;52.354;13.614;2024-03-22T10:04:00;17;12;
76420;PMS5003;65253;52.354;13.614;2024-03-22T10:08:00;16;12;
76420;PMS5003;65253;52.354;13.614;2024-03-22T10:12:02;22;14;
76420;PMS5003;65253;52.354;13.614;2024-03-22T10:16:00;20;12;
76420;PMS5003;65253;52.354;13.614;2024-03-22T10:20:00;17;14;
76420;PMS5003;65253;52.354;13.614;2024-03-22T10:24:00;15;14;
76420;PMS5003;65253;52.354;13.614;2024-03-22T10:28:00;17;12;
76420;PMS5003;65253;52.354;13.614;2024-03-22T10:32:03;20;15;
76420;PMS5003;65253;52.354;13.614;2024-03-22T10:36:00;20;12;
76420;PMS5003;65253;52.354;13.614;2024-03-22T10:40:01;18;12;
76420;PMS5003;65253;52.354;13.614;2024-03-22T10:44:00;18;12;
76420;PMS5003;65253;52.354;13.614;2024-03-22T10:48:00;25;13;
76420;PMS5003;65253;52.354;13.614;2024-03-22T10:52:00;21;14;
76420;PMS5003;65253;52.354;13.614;2024-03-22T10:56:00;23;15;
76420;PMS5003;65253;52.354;13.614;2024-03-22T11:00:00;15;9;
76420;PMS5003;65253;52.354;13.614;2024-03-22T11:04:03;20;13;
76420;PMS5003;65253;52.354;13.614;2024-03-22T11:08:00;19;16;
76420;PMS5003;65253;52.354;13.614;2024-03-22T11:12:00;15;15;
76420;PMS5003;65253;52.354;13.614;2024-03-22T11:16:00;14;12;
76420;PMS5003;65253;52.354;13.614;2024-03-22T11:20:00;9;8;
76420;PMS5003;65253;52.354;13.614;2024-03-22T11:24:00;17;14;
76420;PMS5003;65253;52.354;13.614;2024-03-22T11:28:00;22;14;
76420;PMS5003;65253;52.354;13.614;2024-03-22T11:32:00;16;14;
76420;PMS5003;65253;52.354;13.614;2024-03-22T11:36:01;20;16;
76420;PMS5003;65253;52.354;13.614;2024-03-22T11:40:00;14;13;
76420;PMS5003;65253;52.354;13.614;2024-03-22T11:44:00;18;14;
76420;PMS5003;65253;52.354;13.614;2024-03-22T11:48:01;13;11;
76420;PMS5003;65253;52.354;13.614;2024-03-22T11:52:00;16;10;
76420;PMS5003;65253;52.354;13.614;2024-03-22T11:56:00;16;14;
76420;PMS5003;65253;52.354;13.614;2024-03-22T12:00:12;18;14;
76420;PMS5003;65253;52.354;13.614;2024-03-22T12:04:00;17;13;
76420;PMS5003;65253;52.354;13.614;2024-03-22T12:08:00;22;15;
76420;PMS5003;65253;52.354;13.614;2024-03-22T12:12:00;17;14;
76420;PMS5003;65253;52.354;13.614;2024-03-22T12:16:00;20;17;
76420;PMS5003;65253;52.354;13.614;2024-03-22T12:20:00;17;13;
76420;PMS5003;65253;52.354;13.614;2024-03-22T12:24:00;20;16;
76420;PMS5003;65253;52.354;13.614;2024-03-22T12:28:00;22;14;
76420;PMS5003;65253;52.354;13.614;2024-03-22T12:32:01;21;14;
76420;PMS5003;65253;52.354;13.614;2024-03-22T12:36:00;15;14;
76420;PMS5003;65253;52.354;13.614;2024-03-22T12:40:00;19;13;
76420;PMS5003;65253;52.354;13.614;2024-03-22T12:44:00;16;15;
76420;PMS5003;65253;52.354;13.614;2024-03-22T12:48:00;19;16;
76420;PMS5003;65253;52.354;13.614;2024-03-22T12:52:00;21;15;
76420;PMS5003;65253;52.354;13.614;2024-03-22T12:56:00;20;16;
76420;PMS5003;65253;52.354;13.614;2024-03-22T13:00:00;20;16;
76420;PMS5003;65253;52.354;13.614;2024-03-22T13:04:00;23;19;
76420;PMS5003;65253;52.354;13.614;2024-03-22T13:08:00;32;18;
76420;PMS5003;65253;52.354;13.614;2024-03-22T13:12:00;21;14;
76420;PMS5003;65253;52.354;13.614;2024-03-22T13:16:00;25;20;
76420;PMS5003;65253;52.354;13.614;2024-03-22T13:20:00;26;20;
76420;PMS5003;65253;52.354;13.614;2024-03-22T13:24:00;21;19;
76420;PMS5003;65253;52.354;13.614;2024-03-22T13:28:00;21;20;
76420;PMS5003;65253;52.354;13.614;2024-03-22T13:32:00;16;16;
76420;PMS5003;65253;52.354;13.614;2024-03-22T13:36:00;19;15;
76420;PMS5003;65253;52.354;13.614;2024-03-22T13:40:00;15;11;
76420;PMS5003;65253;52.354;13.614;2024-03-22T13:44:00;13;12;
76420;PMS5003;65253;52.354;13.614;2024-03-22T13:48:00;12;9;
76420;PMS5003;65253;52.354;13.614;2024-03-22T13:52:00;11;8;
76420;PMS5003;65253;52.354;13.614;2024-03-22T13:56:00;17;14;
76420;PMS5003;65253;52.354;13.614;2024-03-22T14:00:00;20;13;
76420;PMS5003;65253;52.354;13.614;2024-03-22T14:04:00;12;8;
76420;PMS5003;65253;52.354;13.614;2024-03-22T14:08:00;16;13;
76420;PMS5003;65253;52.354;13.614;2024-03-22T14:12:00;15;12;
76420;PMS5003;65253;52.354;13.614;2024-03-22T14:16:00;15;13;
76420;PMS5003;65253;52.354;13.614;2024-03-22T14:20:00;12;11;
76420;PMS5003;65253;52.354;13.614;2024-03-22T14:24:00;20;15;
76420;PMS5003;65253;52.354;13.614;2024-03-22T14:28:00;16;13;
76420;PMS5003;65253;52.354;13.614;2024-03-22T14:32:00;19;11;
76420;PMS5003;65253;52.354;13.614;2024-03-22T14:36:00;19;17;
76420;PMS5003;65253;52.354;13.614;2024-03-22T14:40:00;16;13;
76420;PMS5003;65253;52.354;13.614;2024-03-22T14:44:00;19;17;
76420;PMS5003;65253;52.354;13.614;2024-03-22T14:48:00;17;14;
76420;PMS5003;65253;52.354;13.614;2024-03-22T14:52:00;20;13;
76420;PMS5003;65253;52.354;13.614;2024-03-22T14:56:01;20;12;
76420;PMS5003;65253;52.354;13.614;2024-03-22T15:00:00;22;16;
76420;PMS5003;65253;52.354;13.614;2024-03-22T15:04:00;23;17;
76420;PMS5003;65253;52.354;13.614;2024-03-22T15:08:00;27;18;
76420;PMS5003;65253;52.354;13.614;2024-03-22T15:12:00;25;13;
76420;PMS5003;65253;52.354;13.614;2024-03-22T15:16:00;28;15;
76420;PMS5003;65253;52.354;13.614;2024-03-22T15:20:00;23;15;
76420;PMS5003;65253;52.354;13.614;2024-03-22T15:24:00;21;18;
76420;PMS5003;65253;52.354;13.614;2024-03-22T15:28:00;21;15;
76420;PMS5003;65253;52.354;13.614;2024-03-22T15:32:00;23;16;
76420;PMS5003;65253;52.354;13.614;2024-03-22T15:36:00;23;18;
76420;PMS5003;65253;52.354;13.614;2024-03-22T15:40:00;20;15;
76420;PMS5003;65253;52.354;13.614;2024-03-22T15:44:00;22;15;
76420;PMS5003;65253;52.354;13.614;2024-03-22T15:48:00;29;21;
76420;PMS5003;65253;52.354;13.614;2024-03-22T15:52:00;26;16;
76420;PMS5003;65253;52.354;13.614;2024-03-22T15:56:00;26;17;
76420;PMS5003;65253;52.354;13.614;2024-03-22T16:00:00;19;16;
76420;PMS5003;65253;52.354;13.614;2024-03-22T16:04:00;18;17;
76420;PMS5003;65253;52.354;13.614;2024-03-22T16:08:00;23;15;
76420;PMS5003;65253;52.354;13.614;2024-03-22T16:12:00;22;15;
76420;PMS5003;65253;52.354;13.614;2024-03-22T16:16:00;19;14;
76420;PMS5003;65253;52.354;13.614;2024-03-22T16:20:00;19;14;
76420;PMS5003;65253;52.354;13.614;2024-03-22T16:24:00;21;18;
76420;PMS5003;65253;52.354;13.614;2024-03-22T16:28:00;22;19;
76420;PMS5003;65253;52.354;13.614;2024-03-22T16:32:00;21;18;
76420;PMS5003;65253;52.354;13.614;2024-03-22T16:36:00;30;17;
76420;PMS5003;65253;52.354;13.614;2024-03-22T16:40:00;24;18;
76420;PMS5003;65253;52.354;13.614;2024-03-22T16:44:00;19;14;
76420;PMS5003;65253;52.354;13.614;2024-03-22T16:48:00;27;17;
76420;PMS5003;65253;52.354;13.614;2024-03-22T16:52:00;20;18;
76420;PMS5003;65253;52.354;13.614;2024-03-22T16:56:00;18;17;
76420;PMS5003;65253;52.354;13.614;2024-03-22T17:00:00;19;14;
76420;PMS5003;65253;52.354;13.614;2024-03-22T17:04:00;27;18;
76420;PMS5003;65253;52.354;13.614;2024-03-22T17:08:00;30;20;
76420;PMS5003;65253;52.354;13.614;2024-03-22T17:12:00;22;17;
76420;PMS5003;65253;52.354;13.614;2024-03-22T17:16:00;19;18;
76420;PMS5003;65253;52.354;13.614;2024-03-22T17:20:00;30;20;
76420;PMS5003;65253;52.354;13.614;2024-03-22T17:24:00;26;20;
76420;PMS5003;65253;52.354;13.614;2024-03-22T17:28:00;24;21;
76420;PMS5003;65253;52.354;13.614;2024-03-22T17:32:00;21;14;
76420;PMS5003;65253;52.354;13.614;2024-03-22T17:36:00;32;19;
76420;PMS5003;65253;52.354;13.614;2024-03-22T17:40:04;23;20;
76420;PMS5003;65253;52.354;13.614;2024-03-22T17:44:00;27;23;
76420;PMS5003;65253;52.354;13.614;2024-03-22T17:48:00;21;19;
76420;PMS5003;65253;52.354;13.614;2024-03-22T17:52:00;29;23;
76420;PMS5003;65253;52.354;13.614;2024-03-22T17:56:00;34;24;
76420;PMS5003;65253;52.354;13.614;2024-03-22T18:00:00;33;21;
76420;PMS5003;65253;52.354;13.614;2024-03-22T18:04:00;36;24;
76420;PMS5003;65253;52.354;13.614;2024-03-22T18:08:00;34;26;
76420;PMS5003;65253;52.354;13.614;2024-03-22T18:12:00;31;21;
76420;PMS5003;65253;52.354;13.614;2024-03-22T18:16:00;30;25;
76420;PMS5003;65253;52.354;13.614;2024-03-22T18:20:00;37;26;
76420;PMS5003;65253;52.354;13.614;2024-03-22T18:24:00;38;27;
76420;PMS5003;65253;52.354;13.614;2024-03-22T18:28:00;37;25;
76420;PMS5003;65253;52.354;13.614;2024-03-22T18:32:00;24;20;
76420;PMS5003;65253;52.354;13.614;2024-03-22T18:36:00;29;21;
76420;PMS5003;65253;52.354;13.614;2024-03-22T18:40:00;30;27;
76420;PMS5003;65253;52.354;13.614;2024-03-22T18:44:00;27;22;
76420;PMS5003;65253;52.354;13.614;2024-03-22T18:48:00;26;23;
76420;PMS5003;65253;52.354;13.614;2024-03-22T18:52:00;29;24;
76420;PMS5003;65253;52.354;13.614;2024-03-22T18:56:00;41;23;
76420;PMS5003;65253;52.354;13.614;2024-03-22T19:00:00;28;25;
76420;PMS5003;65253;52.354;13.614;2024-03-22T19:04:00;34;26;
76420;PMS5003;65253;52.354;13.614;2024-03-22T19:08:00;35;26;
76420;PMS5003;65253;52.354;13.614;2024-03-22T19:12:00;33;28;
76420;PMS5003;65253;52.354;13.614;2024-03-22T19:16:01;31;24;
76420;PMS5003;65253;52.354;13.614;2024-03-22T19:20:00;32;26;
76420;PMS5003;65253;52.354;13.614;2024-03-22T19:24:00;36;27;
76420;PMS5003;65253;52.354;13.614;2024-03-22T19:28:00;33;26;
76420;PMS5003;65253;52.354;13.614;2024-03-22T19:32:00;30;26;
76420;PMS5003;65253;52.354;13.614;2024-03-22T19:36:00;33;26;
76420;PMS5003;65253;52.354;13.614;2024-03-22T19:40:00;29;26;
76420;PMS5003;65253;52.354;13.614;2024-03-22T19:44:00;32;28;
76420;PMS5003;65253;52.354;13.614;2024-03-22T19:48:00;26;24;
76420;PMS5003;65253;52.354;13.614;2024-03-22T19:52:03;38;30;
76420;PMS5003;65253;52.354;13.614;2024-03-22T19:56:00;37;25;
76420;PMS5003;65253;52.354;13.614;2024-03-22T20:00:00;38;29;
76420;PMS5003;65253;52.354;13.614;2024-03-22T20:04:00;31;29;
76420;PMS5003;65253;52.354;13.614;2024-03-22T20:08:00;33;27;
76420;PMS5003;65253;52.354;13.614;2024-03-22T20:12:00;29;24;
76420;PMS5003;65253;52.354;13.614;2024-03-22T20:16:00;37;29;
76420;PMS5003;65253;52.354;13.614;2024-03-22T20:20:00;31;27;
76420;PMS5003;65253;52.354;13.614;2024-03-22T20:24:00;44;30;
76420;PMS5003;65253;52.354;13.614;2024-03-22T20:28:00;27;24;
76420;PMS5003;65253;52.354;13.614;2024-03-22T20:32:00;29;23;
76420;PMS5003;65253;52.354;13.614;2024-03-22T20:36:00;34;30;
